createdAt,value
2018-07-21T00:03:04.896Z,4.3
2018-07-21T00:08:59.867Z,4.38
2018-07-21T00:14:54.855Z,4.26
2018-07-21T00:20:49.855Z,3.81
2018-07-21T00:26:44.916Z,4.05
2018-07-21T00:32:39.857Z,4.27
2018-07-21T00:38:34.929Z,4.21
2018-07-21T00:44:29.905Z,4.4
2018-07-21T00:50:24.864Z,4.98
2018-07-21T00:56:19.872Z,4.89
2018-07-21T01:02:14.918Z,4.39
2018-07-21T01:08:09.978Z,4.11
2018-07-21T01:14:04.887Z,4.8
2018-07-21T01:19:59.928Z,4.22
2018-07-21T01:25:54.891Z,4.65
2018-07-21T01:31:49.919Z,4.16
2018-07-21T01:37:44.895Z,4.22
2018-07-21T01:43:39.906Z,4.58
2018-07-21T01:49:34.896Z,4.89
2018-07-21T01:55:29.972Z,3.91
2018-07-21T02:01:24.905Z,4.2
2018-07-21T02:07:19.939Z,4.05
2018-07-21T02:13:14.907Z,4.25
2018-07-21T02:19:09.939Z,4.52
2018-07-21T02:25:04.931Z,5
2018-07-21T02:30:59.933Z,4.78
2018-07-21T02:36:54.930Z,5.58
2018-07-21T02:42:49.949Z,5.4
2018-07-21T02:48:44.944Z,5.19
2018-07-21T02:54:39.965Z,4.8
2018-07-21T03:00:34.991Z,5.33
2018-07-21T03:06:29.961Z,5.32
2018-07-21T03:12:24.978Z,5.25
2018-07-21T03:18:19.958Z,5.3
2018-07-21T03:24:14.946Z,5.32
2018-07-21T03:30:09.981Z,5.63
2018-07-21T03:36:04.986Z,5.15
2018-07-21T03:41:59.994Z,4.9
2018-07-21T03:47:54.969Z,5.01
2018-07-21T03:53:49.971Z,4.76
2018-07-21T03:59:45.701Z,5.23
2018-07-21T04:05:40.004Z,5.04
2018-07-21T04:11:35.008Z,5.52
2018-07-21T04:17:30.048Z,5.53
2018-07-21T04:23:25.014Z,5.32
2018-07-21T04:29:20.004Z,5.24
2018-07-21T04:35:15.029Z,5.04
2018-07-21T04:41:10.015Z,6.15
2018-07-21T04:47:05.013Z,5.77
2018-07-21T04:53:00.006Z,6.12
2018-07-21T04:58:55.022Z,5.87
2018-07-21T05:04:50.041Z,6.11
2018-07-21T05:10:45.031Z,5.87
2018-07-21T05:16:40.019Z,5.86
2018-07-21T05:22:35.042Z,5.47
2018-07-21T05:28:30.060Z,5.61
2018-07-21T05:34:25.089Z,5.6
2018-07-21T05:40:20.043Z,5.86
2018-07-21T05:46:15.028Z,5.98
2018-07-21T05:52:10.041Z,6.22
2018-07-21T05:58:05.049Z,5.33
2018-07-21T06:04:00.054Z,6.13
2018-07-21T06:09:55.087Z,6.15
2018-07-21T06:15:50.101Z,6.29
2018-07-21T06:21:45.100Z,6.26
2018-07-21T06:27:40.069Z,6.71
2018-07-21T06:33:35.089Z,5.43
2018-07-21T06:39:30.075Z,6.57
2018-07-21T06:45:25.115Z,6.5
2018-07-21T06:51:20.108Z,6.3
2018-07-21T06:57:15.122Z,5.32
2018-07-21T07:03:10.118Z,5.97
2018-07-21T07:09:05.177Z,6.1
2018-07-21T07:15:00.072Z,6.97
2018-07-21T07:20:55.129Z,6.53
2018-07-21T07:26:50.114Z,6.22
2018-07-21T07:32:45.103Z,6.14
2018-07-21T07:38:40.139Z,5.72
2018-07-21T07:44:35.218Z,6.35
2018-07-21T07:50:30.121Z,5.36
2018-07-21T07:56:25.122Z,5.99
2018-07-21T08:02:20.139Z,5.2
2018-07-21T08:08:15.136Z,5.07
2018-07-21T08:14:10.183Z,5.04
2018-07-21T08:20:05.128Z,5.61
2018-07-21T08:26:00.161Z,5.04
2018-07-21T08:31:55.133Z,4.21
2018-07-21T08:37:50.128Z,4.67
2018-07-21T08:43:45.130Z,4.83
2018-07-21T08:49:40.145Z,4.88
2018-07-21T08:55:35.220Z,4.97
2018-07-21T09:01:30.161Z,4.82
2018-07-21T09:07:25.150Z,5.42
2018-07-21T09:13:20.170Z,4.99
2018-07-21T09:19:15.160Z,6.09
2018-07-21T09:25:10.178Z,4.57
2018-07-21T09:31:05.167Z,4.79
2018-07-21T09:37:00.187Z,8.03
2018-07-21T09:42:55.184Z,5.59
2018-07-21T09:48:50.202Z,4.77
2018-07-21T09:54:45.220Z,5.11
2018-07-21T10:00:40.254Z,4.91
2018-07-21T10:06:35.203Z,4.69
2018-07-21T10:12:30.194Z,4.78
2018-07-21T10:18:25.184Z,4.56
2018-07-21T10:24:20.232Z,4.63
2018-07-21T10:30:15.297Z,4.83
2018-07-21T10:36:10.268Z,5.49
2018-07-21T10:42:05.232Z,4.41
2018-07-21T10:48:00.247Z,4.23
2018-07-21T10:53:55.235Z,4.33
2018-07-21T10:59:50.225Z,4.44
2018-07-21T11:05:45.225Z,3.54
2018-07-21T11:11:40.236Z,3.5
2018-07-21T11:17:35.257Z,3.79
2018-07-21T11:23:30.241Z,4.68
2018-07-21T11:29:25.275Z,3.46
2018-07-21T11:35:20.375Z,3.96
2018-07-21T11:41:15.244Z,4.58
2018-07-21T11:47:10.258Z,5.12
2018-07-21T11:53:05.283Z,5.08
2018-07-21T11:59:00.284Z,5.27
2018-07-21T12:05:04.402Z,4.92
2018-07-21T12:10:58.493Z,5.11
2018-07-21T12:16:45.263Z,5.92
2018-07-21T12:22:40.293Z,4.86
2018-07-21T12:29:46.428Z,5.31
2018-07-21T12:40:25.316Z,5.7
2018-07-21T12:46:20.305Z,5.04
2018-07-21T12:52:15.339Z,6.25
2018-07-21T12:58:10.312Z,5.4
2018-07-21T13:04:05.306Z,5.7
2018-07-21T13:10:00.308Z,6.18
2018-07-21T13:15:55.311Z,5.45
2018-07-21T13:21:50.366Z,5.8
2018-07-21T13:27:45.303Z,5.99
2018-07-21T13:33:40.306Z,6.96
2018-07-21T13:39:35.314Z,5.96
2018-07-21T13:45:30.322Z,6.09
2018-07-21T13:51:25.371Z,5.75
2018-07-21T13:57:20.330Z,6.54
2018-07-21T14:03:15.329Z,5.99
2018-07-21T14:09:10.330Z,5.81
2018-07-21T14:15:05.379Z,5.55
2018-07-21T14:21:00.391Z,6.42
2018-07-21T14:26:55.333Z,5.1
2018-07-21T14:33:09.078Z,6.36
2018-07-21T14:38:45.383Z,5.32
2018-07-21T14:44:40.350Z,5.7
2018-07-21T14:50:35.358Z,5.71
2018-07-21T14:56:30.348Z,5.21
2018-07-21T15:02:25.346Z,5.34
2018-07-21T15:08:20.375Z,5.96
2018-07-21T15:14:15.380Z,5.37
2018-07-21T15:20:10.415Z,5.03
2018-07-21T15:26:05.387Z,6.07
2018-07-21T15:32:00.396Z,4.31
2018-07-21T15:37:55.425Z,4.1
2018-07-21T15:43:50.392Z,5.36
2018-07-21T15:49:45.442Z,5.81
2018-07-21T15:55:40.416Z,5.34
2018-07-21T16:01:35.495Z,5.5
2018-07-21T16:07:30.435Z,5.64
2018-07-21T16:13:25.403Z,6.06
2018-07-21T16:19:20.409Z,5.9
2018-07-21T16:25:15.418Z,5.42
2018-07-21T16:31:10.481Z,5.46
2018-07-21T16:37:05.432Z,6.28
2018-07-21T16:43:00.461Z,4.42
2018-07-21T16:48:55.457Z,4.48
2018-07-21T16:54:50.459Z,4.99
2018-07-21T17:00:45.459Z,4.77
2018-07-21T17:06:40.462Z,5.13
2018-07-21T17:12:35.459Z,7.58
2018-07-21T17:18:30.444Z,6.1
2018-07-21T17:24:25.470Z,5.87
2018-07-21T17:30:20.459Z,5.89
2018-07-21T17:36:15.501Z,5.3
2018-07-21T17:42:10.476Z,5.55
2018-07-21T17:48:05.476Z,8.49
2018-07-21T17:54:00.458Z,8.35
2018-07-21T17:59:55.470Z,17.61
2018-07-21T18:05:50.476Z,14.46
2018-07-21T18:11:45.490Z,12.8
2018-07-21T18:17:40.486Z,13.01
2018-07-21T18:23:35.532Z,6.17
2018-07-21T18:29:30.513Z,5.13
2018-07-21T18:35:25.491Z,9.95
2018-07-21T18:41:20.508Z,14.94
2018-07-21T18:47:15.509Z,14.63
2018-07-21T18:53:10.522Z,11.9
2018-07-21T18:59:05.542Z,14.36
2018-07-21T19:05:00.513Z,8.6
2018-07-21T19:10:55.517Z,6.51
2018-07-21T19:16:50.519Z,5.24
2018-07-21T19:22:45.560Z,6.69
2018-07-21T19:28:40.547Z,5.31
2018-07-21T19:34:35.511Z,6.21
2018-07-21T19:40:30.556Z,6.38
2018-07-21T19:46:25.525Z,5.52
2018-07-21T19:52:20.548Z,5.97
2018-07-21T19:58:15.653Z,10.12
2018-07-21T20:04:10.659Z,5.66
2018-07-21T20:10:05.587Z,5.62
2018-07-21T20:16:00.555Z,5.26
2018-07-21T20:21:55.586Z,5.16
2018-07-21T20:27:50.568Z,5.53
2018-07-21T20:33:45.577Z,5.23
2018-07-21T20:39:40.586Z,5.3
2018-07-21T20:45:35.596Z,5.84
2018-07-21T20:51:30.583Z,5.04
2018-07-21T20:57:25.584Z,5.85
2018-07-21T21:03:20.618Z,5.82
2018-07-21T21:09:15.578Z,5.49
2018-07-21T21:15:10.605Z,5.65
2018-07-21T21:21:05.611Z,5.55
2018-07-21T21:27:00.578Z,6
2018-07-21T21:32:55.611Z,5.91
2018-07-21T21:38:50.608Z,6.15
2018-07-21T21:44:45.614Z,5.64
2018-07-21T21:50:40.604Z,6.42
2018-07-21T21:56:35.648Z,5.57
2018-07-21T22:02:30.658Z,5.43
2018-07-21T22:08:25.652Z,5.71
2018-07-21T22:14:20.753Z,6.99
2018-07-21T22:20:15.630Z,6.61
2018-07-21T22:26:10.645Z,5.43
2018-07-21T22:32:05.643Z,6.24
2018-07-21T22:38:00.667Z,6.78
2018-07-21T22:43:55.631Z,5.94
2018-07-21T22:49:50.668Z,6.24
2018-07-21T22:55:45.656Z,6.23
2018-07-21T23:01:40.667Z,6.42
2018-07-21T23:07:35.657Z,6.74
2018-07-21T23:13:30.664Z,6.53
2018-07-21T23:19:25.683Z,5.99
2018-07-21T23:25:20.671Z,5.96
2018-07-21T23:31:15.695Z,6.38
2018-07-21T23:37:10.664Z,5.87
2018-07-21T23:43:05.733Z,5.84
2018-07-21T23:49:00.673Z,6.49
2018-07-21T23:54:55.668Z,6.31
